Harrisburg, Indiana
Current Conditions -  °F | °C
As of 9:15 AM on Monday 26 Jan 2015 (Local Time) from KI67 Reporting Station
Overcast Overcast  
Wind Chill: 14°   Ceiling: 3100
Heat Index: 21°   Visibility: 10mi
Dew Point: 18°   Wind: 6mph
Humidity: 86%   Direction: 340°NNW
Pressure: 29.92"   Gusts: NA
Location:  39.645°N, 85.1744°W
Report Text: KI67 261415Z AUTO 34005KT 10SM OVC031 M06/M08 A2992 RMK AO1
Loading
Personal Weather Stations






























Interactive Weather Map New forecast layout! Learn more

10-Day Weather Forecast

Advertisements
Track Severe Weather on mobile